sensor_id;sensor_type;location;lat;lon;timestamp;P1;durP1;ratioP1;P2;durP2;ratioP2
51913;SDS011;37940;53.002;6.930;2022-07-23T00:01:20;6.50;;;3.70;;
51913;SDS011;37940;53.002;6.930;2022-07-23T00:03:46;6.15;;;3.55;;
51913;SDS011;37940;53.002;6.930;2022-07-23T00:06:12;6.22;;;3.38;;
51913;SDS011;37940;53.002;6.930;2022-07-23T00:08:38;5.97;;;3.30;;
51913;SDS011;37940;53.002;6.930;2022-07-23T00:11:04;6.88;;;3.25;;
51913;SDS011;37940;53.002;6.930;2022-07-23T00:13:29;6.68;;;3.35;;
51913;SDS011;37940;53.002;6.930;2022-07-23T00:15:55;7.50;;;3.78;;
51913;SDS011;37940;53.002;6.930;2022-07-23T00:18:21;8.45;;;3.72;;
51913;SDS011;37940;53.002;6.930;2022-07-23T00:20:47;7.78;;;3.90;;
51913;SDS011;37940;53.002;6.930;2022-07-23T00:23:12;7.57;;;3.67;;
51913;SDS011;37940;53.002;6.930;2022-07-23T00:25:38;7.85;;;3.70;;
51913;SDS011;37940;53.002;6.930;2022-07-23T00:28:04;8.88;;;4.28;;
51913;SDS011;37940;53.002;6.930;2022-07-23T00:30:30;8.48;;;4.50;;
51913;SDS011;37940;53.002;6.930;2022-07-23T00:32:58;6.13;;;4.50;;
51913;SDS011;37940;53.002;6.930;2022-07-23T00:35:26;7.53;;;4.28;;
51913;SDS011;37940;53.002;6.930;2022-07-23T00:37:54;5.78;;;4.00;;
51913;SDS011;37940;53.002;6.930;2022-07-23T00:40:20;7.22;;;4.18;;
51913;SDS011;37940;53.002;6.930;2022-07-23T00:42:47;7.05;;;3.80;;
51913;SDS011;37940;53.002;6.930;2022-07-23T00:45:12;7.53;;;4.70;;
51913;SDS011;37940;53.002;6.930;2022-07-23T00:47:38;6.60;;;4.05;;
51913;SDS011;37940;53.002;6.930;2022-07-23T00:50:05;6.18;;;3.38;;
51913;SDS011;37940;53.002;6.930;2022-07-23T00:52:33;6.90;;;3.60;;
51913;SDS011;37940;53.002;6.930;2022-07-23T00:55:00;8.40;;;3.90;;
51913;SDS011;37940;53.002;6.930;2022-07-23T00:57:26;8.45;;;4.18;;
51913;SDS011;37940;53.002;6.930;2022-07-23T00:59:52;6.93;;;3.88;;
51913;SDS011;37940;53.002;6.930;2022-07-23T01:02:18;7.72;;;4.30;;
51913;SDS011;37940;53.002;6.930;2022-07-23T01:04:44;14.15;;;4.50;;
51913;SDS011;37940;53.002;6.930;2022-07-23T01:07:09;7.93;;;4.45;;
51913;SDS011;37940;53.002;6.930;2022-07-23T01:09:36;9.48;;;4.70;;
51913;SDS011;37940;53.002;6.930;2022-07-23T01:12:02;8.40;;;4.78;;
51913;SDS011;37940;53.002;6.930;2022-07-23T01:14:28;6.95;;;4.72;;
51913;SDS011;37940;53.002;6.930;2022-07-23T01:16:54;10.77;;;4.82;;
51913;SDS011;37940;53.002;6.930;2022-07-23T01:19:20;8.23;;;4.53;;
51913;SDS011;37940;53.002;6.930;2022-07-23T01:21:47;8.00;;;4.72;;
51913;SDS011;37940;53.002;6.930;2022-07-23T01:24:14;6.65;;;4.95;;
51913;SDS011;37940;53.002;6.930;2022-07-23T01:26:42;5.90;;;4.35;;
51913;SDS011;37940;53.002;6.930;2022-07-23T01:29:09;9.23;;;5.00;;
51913;SDS011;37940;53.002;6.930;2022-07-23T01:31:35;9.45;;;4.78;;
51913;SDS011;37940;53.002;6.930;2022-07-23T01:34:01;8.73;;;5.10;;
51913;SDS011;37940;53.002;6.930;2022-07-23T01:36:28;10.55;;;5.05;;
51913;SDS011;37940;53.002;6.930;2022-07-23T01:38:54;9.45;;;5.13;;
51913;SDS011;37940;53.002;6.930;2022-07-23T01:41:19;10.60;;;4.90;;
51913;SDS011;37940;53.002;6.930;2022-07-23T01:43:45;6.95;;;4.80;;
51913;SDS011;37940;53.002;6.930;2022-07-23T01:46:11;8.20;;;5.20;;
51913;SDS011;37940;53.002;6.930;2022-07-23T01:48:37;9.85;;;5.22;;
51913;SDS011;37940;53.002;6.930;2022-07-23T01:51:03;11.82;;;5.57;;
51913;SDS011;37940;53.002;6.930;2022-07-23T01:53:29;11.20;;;5.80;;
51913;SDS011;37940;53.002;6.930;2022-07-23T01:55:56;9.77;;;5.72;;
51913;SDS011;37940;53.002;6.930;2022-07-23T01:58:22;6.60;;;5.32;;
51913;SDS011;37940;53.002;6.930;2022-07-23T02:00:49;9.00;;;5.53;;
51913;SDS011;37940;53.002;6.930;2022-07-23T02:03:14;11.55;;;6.20;;
51913;SDS011;37940;53.002;6.930;2022-07-23T02:05:40;9.40;;;5.93;;
51913;SDS011;37940;53.002;6.930;2022-07-23T02:08:06;10.02;;;6.70;;
51913;SDS011;37940;53.002;6.930;2022-07-23T02:10:31;9.13;;;5.97;;
51913;SDS011;37940;53.002;6.930;2022-07-23T02:12:57;7.32;;;5.70;;
51913;SDS011;37940;53.002;6.930;2022-07-23T02:15:23;11.05;;;6.50;;
51913;SDS011;37940;53.002;6.930;2022-07-23T02:17:49;10.25;;;6.47;;
51913;SDS011;37940;53.002;6.930;2022-07-23T02:20:14;8.05;;;5.78;;
51913;SDS011;37940;53.002;6.930;2022-07-23T02:22:40;9.38;;;5.90;;
51913;SDS011;37940;53.002;6.930;2022-07-23T02:25:06;10.38;;;6.43;;
51913;SDS011;37940;53.002;6.930;2022-07-23T02:27:35;7.50;;;5.80;;
51913;SDS011;37940;53.002;6.930;2022-07-23T02:30:00;8.38;;;6.43;;
51913;SDS011;37940;53.002;6.930;2022-07-23T02:32:26;10.45;;;5.97;;
51913;SDS011;37940;53.002;6.930;2022-07-23T02:34:53;8.68;;;5.85;;
51913;SDS011;37940;53.002;6.930;2022-07-23T02:37:18;11.40;;;6.55;;
51913;SDS011;37940;53.002;6.930;2022-07-23T02:39:44;13.45;;;6.70;;
51913;SDS011;37940;53.002;6.930;2022-07-23T02:42:10;9.45;;;6.28;;
51913;SDS011;37940;53.002;6.930;2022-07-23T02:44:36;11.65;;;6.15;;
51913;SDS011;37940;53.002;6.930;2022-07-23T02:47:01;10.45;;;6.90;;
51913;SDS011;37940;53.002;6.930;2022-07-23T02:49:27;12.57;;;7.65;;
51913;SDS011;37940;53.002;6.930;2022-07-23T02:51:53;10.20;;;6.25;;
51913;SDS011;37940;53.002;6.930;2022-07-23T02:54:18;10.52;;;6.50;;
51913;SDS011;37940;53.002;6.930;2022-07-23T02:56:44;11.32;;;7.00;;
51913;SDS011;37940;53.002;6.930;2022-07-23T02:59:10;9.65;;;6.68;;
51913;SDS011;37940;53.002;6.930;2022-07-23T03:01:36;8.95;;;6.55;;
51913;SDS011;37940;53.002;6.930;2022-07-23T03:04:02;11.95;;;7.85;;
51913;SDS011;37940;53.002;6.930;2022-07-23T03:06:28;12.45;;;6.82;;
51913;SDS011;37940;53.002;6.930;2022-07-23T03:08:54;11.65;;;7.10;;
51913;SDS011;37940;53.002;6.930;2022-07-23T03:11:20;9.50;;;6.53;;
51913;SDS011;37940;53.002;6.930;2022-07-23T03:13:45;11.43;;;6.60;;
51913;SDS011;37940;53.002;6.930;2022-07-23T03:16:11;11.73;;;6.72;;
51913;SDS011;37940;53.002;6.930;2022-07-23T03:18:37;10.43;;;6.93;;
51913;SDS011;37940;53.002;6.930;2022-07-23T03:21:03;13.02;;;6.93;;
51913;SDS011;37940;53.002;6.930;2022-07-23T03:23:28;7.32;;;6.22;;
51913;SDS011;37940;53.002;6.930;2022-07-23T03:25:54;7.93;;;6.38;;
51913;SDS011;37940;53.002;6.930;2022-07-23T03:28:20;9.80;;;6.38;;
51913;SDS011;37940;53.002;6.930;2022-07-23T03:30:46;10.40;;;6.93;;
51913;SDS011;37940;53.002;6.930;2022-07-23T03:33:13;8.80;;;6.45;;
51913;SDS011;37940;53.002;6.930;2022-07-23T03:35:41;9.85;;;6.32;;
51913;SDS011;37940;53.002;6.930;2022-07-23T03:38:08;10.23;;;7.35;;
51913;SDS011;37940;53.002;6.930;2022-07-23T03:40:34;10.23;;;6.90;;
51913;SDS011;37940;53.002;6.930;2022-07-23T03:42:59;12.98;;;6.78;;
51913;SDS011;37940;53.002;6.930;2022-07-23T03:45:25;11.00;;;6.78;;
51913;SDS011;37940;53.002;6.930;2022-07-23T03:47:51;9.70;;;6.68;;
51913;SDS011;37940;53.002;6.930;2022-07-23T03:50:17;9.80;;;6.72;;
51913;SDS011;37940;53.002;6.930;2022-07-23T03:52:43;13.10;;;6.88;;
51913;SDS011;37940;53.002;6.930;2022-07-23T03:55:08;12.57;;;7.43;;
51913;SDS011;37940;53.002;6.930;2022-07-23T03:57:34;9.88;;;7.20;;
51913;SDS011;37940;53.002;6.930;2022-07-23T04:00:00;11.13;;;7.25;;
51913;SDS011;37940;53.002;6.930;2022-07-23T04:02:27;15.70;;;8.02;;
51913;SDS011;37940;53.002;6.930;2022-07-23T04:04:53;12.93;;;7.45;;
51913;SDS011;37940;53.002;6.930;2022-07-23T04:07:19;11.52;;;6.57;;
51913;SDS011;37940;53.002;6.930;2022-07-23T04:09:44;9.15;;;7.05;;
51913;SDS011;37940;53.002;6.930;2022-07-23T04:12:10;17.15;;;8.32;;
51913;SDS011;37940;53.002;6.930;2022-07-23T04:14:36;12.43;;;7.38;;
51913;SDS011;37940;53.002;6.930;2022-07-23T04:17:02;14.55;;;8.57;;
51913;SDS011;37940;53.002;6.930;2022-07-23T04:19:27;10.55;;;7.45;;
51913;SDS011;37940;53.002;6.930;2022-07-23T04:21:55;12.10;;;6.38;;
51913;SDS011;37940;53.002;6.930;2022-07-23T04:24:21;12.07;;;6.53;;
51913;SDS011;37940;53.002;6.930;2022-07-23T04:26:47;7.15;;;5.80;;
51913;SDS011;37940;53.002;6.930;2022-07-23T04:29:12;8.68;;;6.07;;
51913;SDS011;37940;53.002;6.930;2022-07-23T04:31:38;9.18;;;6.38;;
51913;SDS011;37940;53.002;6.930;2022-07-23T04:34:04;9.77;;;6.40;;
51913;SDS011;37940;53.002;6.930;2022-07-23T04:36:29;12.77;;;6.57;;
51913;SDS011;37940;53.002;6.930;2022-07-23T04:38:55;12.00;;;6.43;;
51913;SDS011;37940;53.002;6.930;2022-07-23T04:41:21;12.25;;;6.78;;
51913;SDS011;37940;53.002;6.930;2022-07-23T04:43:47;10.30;;;7.43;;
51913;SDS011;37940;53.002;6.930;2022-07-23T04:46:12;10.98;;;6.93;;
51913;SDS011;37940;53.002;6.930;2022-07-23T04:48:38;11.73;;;6.47;;
51913;SDS011;37940;53.002;6.930;2022-07-23T04:51:04;9.57;;;6.53;;
51913;SDS011;37940;53.002;6.930;2022-07-23T04:53:30;11.63;;;6.90;;
51913;SDS011;37940;53.002;6.930;2022-07-23T04:55:56;13.23;;;7.25;;
51913;SDS011;37940;53.002;6.930;2022-07-23T04:58:22;8.48;;;6.30;;
51913;SDS011;37940;53.002;6.930;2022-07-23T05:00:48;13.63;;;6.55;;
51913;SDS011;37940;53.002;6.930;2022-07-23T05:03:14;11.43;;;6.15;;
51913;SDS011;37940;53.002;6.930;2022-07-23T05:05:40;9.73;;;6.07;;
51913;SDS011;37940;53.002;6.930;2022-07-23T05:08:05;10.70;;;6.45;;
51913;SDS011;37940;53.002;6.930;2022-07-23T05:10:31;12.20;;;6.82;;
51913;SDS011;37940;53.002;6.930;2022-07-23T05:12:58;9.30;;;6.72;;
51913;SDS011;37940;53.002;6.930;2022-07-23T05:15:23;7.78;;;6.00;;
51913;SDS011;37940;53.002;6.930;2022-07-23T05:17:49;9.65;;;6.13;;
51913;SDS011;37940;53.002;6.930;2022-07-23T05:20:15;7.43;;;4.90;;
51913;SDS011;37940;53.002;6.930;2022-07-23T05:22:40;8.23;;;4.10;;
51913;SDS011;37940;53.002;6.930;2022-07-23T05:25:06;6.65;;;3.67;;
51913;SDS011;37940;53.002;6.930;2022-07-23T05:27:33;8.18;;;3.58;;
51913;SDS011;37940;53.002;6.930;2022-07-23T05:29:58;8.45;;;4.00;;
51913;SDS011;37940;53.002;6.930;2022-07-23T05:32:24;9.45;;;3.80;;
51913;SDS011;37940;53.002;6.930;2022-07-23T05:34:50;7.85;;;3.60;;
51913;SDS011;37940;53.002;6.930;2022-07-23T05:37:16;6.03;;;3.40;;
51913;SDS011;37940;53.002;6.930;2022-07-23T05:39:42;5.38;;;3.10;;
51913;SDS011;37940;53.002;6.930;2022-07-23T05:42:08;8.10;;;3.42;;
51913;SDS011;37940;53.002;6.930;2022-07-23T05:44:33;8.40;;;3.10;;
51913;SDS011;37940;53.002;6.930;2022-07-23T05:46:59;8.23;;;3.47;;
51913;SDS011;37940;53.002;6.930;2022-07-23T05:49:25;6.65;;;3.45;;
51913;SDS011;37940;53.002;6.930;2022-07-23T05:51:51;7.75;;;3.33;;
51913;SDS011;37940;53.002;6.930;2022-07-23T05:54:16;5.95;;;2.80;;
51913;SDS011;37940;53.002;6.930;2022-07-23T05:56:42;5.32;;;3.10;;
51913;SDS011;37940;53.002;6.930;2022-07-23T05:59:08;5.65;;;2.78;;
51913;SDS011;37940;53.002;6.930;2022-07-23T06:01:34;7.43;;;3.25;;
51913;SDS011;37940;53.002;6.930;2022-07-23T06:03:59;6.97;;;2.80;;
51913;SDS011;37940;53.002;6.930;2022-07-23T06:06:25;7.75;;;2.60;;
51913;SDS011;37940;53.002;6.930;2022-07-23T06:08:51;5.03;;;2.83;;
51913;SDS011;37940;53.002;6.930;2022-07-23T06:11:17;8.85;;;3.10;;
51913;SDS011;37940;53.002;6.930;2022-07-23T06:13:42;7.65;;;3.03;;
51913;SDS011;37940;53.002;6.930;2022-07-23T06:16:08;7.28;;;2.80;;
51913;SDS011;37940;53.002;6.930;2022-07-23T06:18:34;5.15;;;2.78;;
51913;SDS011;37940;53.002;6.930;2022-07-23T06:21:00;4.40;;;2.60;;
51913;SDS011;37940;53.002;6.930;2022-07-23T06:23:25;5.60;;;2.63;;
51913;SDS011;37940;53.002;6.930;2022-07-23T06:25:51;5.40;;;2.55;;
51913;SDS011;37940;53.002;6.930;2022-07-23T06:28:17;5.80;;;2.78;;
51913;SDS011;37940;53.002;6.930;2022-07-23T06:30:43;5.10;;;2.72;;
51913;SDS011;37940;53.002;6.930;2022-07-23T06:33:08;6.13;;;2.67;;
51913;SDS011;37940;53.002;6.930;2022-07-23T06:35:36;6.03;;;2.70;;
51913;SDS011;37940;53.002;6.930;2022-07-23T06:38:02;5.40;;;2.42;;
51913;SDS011;37940;53.002;6.930;2022-07-23T06:40:28;5.82;;;2.35;;
51913;SDS011;37940;53.002;6.930;2022-07-23T06:42:53;3.92;;;2.63;;
51913;SDS011;37940;53.002;6.930;2022-07-23T06:45:19;4.55;;;2.50;;
51913;SDS011;37940;53.002;6.930;2022-07-23T06:47:45;3.85;;;2.40;;
51913;SDS011;37940;53.002;6.930;2022-07-23T06:50:11;9.68;;;2.47;;
51913;SDS011;37940;53.002;6.930;2022-07-23T06:52:36;5.70;;;2.15;;
51913;SDS011;37940;53.002;6.930;2022-07-23T06:55:02;6.90;;;1.90;;
51913;SDS011;37940;53.002;6.930;2022-07-23T06:57:28;6.90;;;2.40;;
51913;SDS011;37940;53.002;6.930;2022-07-23T06:59:54;3.67;;;1.85;;
51913;SDS011;37940;53.002;6.930;2022-07-23T07:02:19;6.43;;;2.47;;
51913;SDS011;37940;53.002;6.930;2022-07-23T07:04:45;5.28;;;1.90;;
51913;SDS011;37940;53.002;6.930;2022-07-23T07:07:11;4.65;;;2.00;;
51913;SDS011;37940;53.002;6.930;2022-07-23T07:09:37;2.97;;;1.80;;
51913;SDS011;37940;53.002;6.930;2022-07-23T07:12:03;3.17;;;1.60;;
51913;SDS011;37940;53.002;6.930;2022-07-23T07:14:29;3.72;;;1.58;;
51913;SDS011;37940;53.002;6.930;2022-07-23T07:16:55;4.90;;;1.75;;
51913;SDS011;37940;53.002;6.930;2022-07-23T07:19:21;5.00;;;1.80;;
51913;SDS011;37940;53.002;6.930;2022-07-23T07:21:46;3.17;;;1.60;;
51913;SDS011;37940;53.002;6.930;2022-07-23T07:24:12;3.78;;;1.40;;
51913;SDS011;37940;53.002;6.930;2022-07-23T07:26:38;3.17;;;1.50;;
51913;SDS011;37940;53.002;6.930;2022-07-23T07:29:04;3.17;;;1.35;;
51913;SDS011;37940;53.002;6.930;2022-07-23T07:31:30;2.85;;;1.17;;
51913;SDS011;37940;53.002;6.930;2022-07-23T07:33:56;2.50;;;1.30;;
51913;SDS011;37940;53.002;6.930;2022-07-23T07:36:23;3.33;;;1.00;;
51913;SDS011;37940;53.002;6.930;2022-07-23T07:38:49;3.95;;;1.02;;
51913;SDS011;37940;53.002;6.930;2022-07-23T07:41:14;1.88;;;1.10;;
51913;SDS011;37940;53.002;6.930;2022-07-23T07:43:40;2.47;;;1.10;;
51913;SDS011;37940;53.002;6.930;2022-07-23T07:46:06;1.27;;;0.88;;
51913;SDS011;37940;53.002;6.930;2022-07-23T07:48:35;2.05;;;0.95;;
51913;SDS011;37940;53.002;6.930;2022-07-23T07:51:02;2.53;;;0.90;;
51913;SDS011;37940;53.002;6.930;2022-07-23T07:53:28;3.38;;;0.90;;
51913;SDS011;37940;53.002;6.930;2022-07-23T07:55:54;4.82;;;1.10;;
51913;SDS011;37940;53.002;6.930;2022-07-23T07:58:20;4.60;;;1.10;;
51913;SDS011;37940;53.002;6.930;2022-07-23T08:00:45;3.88;;;1.20;;
51913;SDS011;37940;53.002;6.930;2022-07-23T08:03:11;2.03;;;1.20;;
51913;SDS011;37940;53.002;6.930;2022-07-23T08:05:37;4.90;;;1.63;;
51913;SDS011;37940;53.002;6.930;2022-07-23T08:08:03;3.85;;;1.15;;
51913;SDS011;37940;53.002;6.930;2022-07-23T08:10:29;1.95;;;0.90;;
51913;SDS011;37940;53.002;6.930;2022-07-23T08:12:56;2.20;;;1.00;;
51913;SDS011;37940;53.002;6.930;2022-07-23T08:15:26;3.28;;;0.88;;
51913;SDS011;37940;53.002;6.930;2022-07-23T08:17:54;3.05;;;1.00;;
51913;SDS011;37940;53.002;6.930;2022-07-23T08:20:21;1.23;;;0.80;;
51913;SDS011;37940;53.002;6.930;2022-07-23T08:25:14;2.25;;;0.75;;
51913;SDS011;37940;53.002;6.930;2022-07-23T08:27:41;5.65;;;1.00;;
51913;SDS011;37940;53.002;6.930;2022-07-23T08:30:07;1.90;;;0.70;;
51913;SDS011;37940;53.002;6.930;2022-07-23T08:32:33;2.78;;;0.70;;
51913;SDS011;37940;53.002;6.930;2022-07-23T08:35:12;1.33;;;0.70;;
51913;SDS011;37940;53.002;6.930;2022-07-23T08:37:37;1.80;;;0.80;;
51913;SDS011;37940;53.002;6.930;2022-07-23T08:40:03;1.30;;;0.80;;
51913;SDS011;37940;53.002;6.930;2022-07-23T08:42:29;1.17;;;0.70;;
51913;SDS011;37940;53.002;6.930;2022-07-23T08:44:56;1.58;;;0.82;;
51913;SDS011;37940;53.002;6.930;2022-07-23T08:47:22;2.88;;;0.70;;
51913;SDS011;37940;53.002;6.930;2022-07-23T08:49:47;1.33;;;0.75;;
51913;SDS011;37940;53.002;6.930;2022-07-23T08:52:13;2.47;;;0.70;;
51913;SDS011;37940;53.002;6.930;2022-07-23T08:54:40;0.70;;;0.60;;
51913;SDS011;37940;53.002;6.930;2022-07-23T08:57:05;3.05;;;0.73;;
51913;SDS011;37940;53.002;6.930;2022-07-23T08:59:31;1.52;;;0.68;;
51913;SDS011;37940;53.002;6.930;2022-07-23T09:01:57;1.50;;;0.75;;
51913;SDS011;37940;53.002;6.930;2022-07-23T09:04:25;1.52;;;0.82;;
51913;SDS011;37940;53.002;6.930;2022-07-23T09:06:51;2.25;;;0.80;;
51913;SDS011;37940;53.002;6.930;2022-07-23T09:09:20;2.20;;;0.82;;
51913;SDS011;37940;53.002;6.930;2022-07-23T09:11:46;1.63;;;0.80;;
51913;SDS011;37940;53.002;6.930;2022-07-23T09:14:13;1.30;;;0.60;;
51913;SDS011;37940;53.002;6.930;2022-07-23T09:16:38;2.50;;;0.80;;
51913;SDS011;37940;53.002;6.930;2022-07-23T09:19:05;1.27;;;0.70;;
51913;SDS011;37940;53.002;6.930;2022-07-23T09:21:35;1.08;;;0.68;;
51913;SDS011;37940;53.002;6.930;2022-07-23T09:26:36;1.00;;;0.60;;
51913;SDS011;37940;53.002;6.930;2022-07-23T09:36:44;1.73;;;0.82;;
51913;SDS011;37940;53.002;6.930;2022-07-23T09:39:11;1.15;;;0.70;;
51913;SDS011;37940;53.002;6.930;2022-07-23T09:41:39;2.03;;;0.90;;
51913;SDS011;37940;53.002;6.930;2022-07-23T09:44:07;3.55;;;0.77;;
51913;SDS011;37940;53.002;6.930;2022-07-23T09:46:37;4.50;;;0.60;;
51913;SDS011;37940;53.002;6.930;2022-07-23T09:49:38;2.80;;;1.00;;
51913;SDS011;37940;53.002;6.930;2022-07-23T09:51:57;3.58;;;0.73;;
51913;SDS011;37940;53.002;6.930;2022-07-23T09:57:11;1.20;;;0.82;;
51913;SDS011;37940;53.002;6.930;2022-07-23T09:59:42;1.05;;;0.65;;
51913;SDS011;37940;53.002;6.930;2022-07-23T10:02:11;2.22;;;0.55;;
51913;SDS011;37940;53.002;6.930;2022-07-23T10:04:38;0.88;;;0.63;;
51913;SDS011;37940;53.002;6.930;2022-07-23T10:07:05;2.20;;;0.80;;
51913;SDS011;37940;53.002;6.930;2022-07-23T10:09:34;3.10;;;0.90;;
51913;SDS011;37940;53.002;6.930;2022-07-23T10:12:03;2.60;;;0.80;;
51913;SDS011;37940;53.002;6.930;2022-07-23T10:14:48;1.50;;;1.00;;
51913;SDS011;37940;53.002;6.930;2022-07-23T10:17:15;3.13;;;0.82;;
51913;SDS011;37940;53.002;6.930;2022-07-23T10:19:41;1.83;;;0.75;;
51913;SDS011;37940;53.002;6.930;2022-07-23T10:22:09;2.78;;;0.82;;
51913;SDS011;37940;53.002;6.930;2022-07-23T10:30:14;3.35;;;0.90;;
51913;SDS011;37940;53.002;6.930;2022-07-23T10:36:01;1.27;;;0.77;;
51913;SDS011;37940;53.002;6.930;2022-07-23T10:38:56;2.80;;;0.80;;
51913;SDS011;37940;53.002;6.930;2022-07-23T10:49:40;4.40;;;0.90;;
51913;SDS011;37940;53.002;6.930;2022-07-23T10:52:16;2.47;;;1.13;;
51913;SDS011;37940;53.002;6.930;2022-07-23T10:54:47;2.00;;;0.90;;
51913;SDS011;37940;53.002;6.930;2022-07-23T10:57:14;2.17;;;0.80;;
51913;SDS011;37940;53.002;6.930;2022-07-23T11:02:26;3.63;;;1.05;;
51913;SDS011;37940;53.002;6.930;2022-07-23T11:04:54;2.63;;;1.08;;
51913;SDS011;37940;53.002;6.930;2022-07-23T11:07:25;2.05;;;0.88;;
51913;SDS011;37940;53.002;6.930;2022-07-23T11:09:51;1.65;;;1.05;;
51913;SDS011;37940;53.002;6.930;2022-07-23T11:22:35;3.83;;;1.10;;
51913;SDS011;37940;53.002;6.930;2022-07-23T11:25:02;2.05;;;0.90;;
51913;SDS011;37940;53.002;6.930;2022-07-23T11:27:37;1.83;;;1.10;;
51913;SDS011;37940;53.002;6.930;2022-07-23T11:30:03;3.95;;;0.95;;
51913;SDS011;37940;53.002;6.930;2022-07-23T11:32:30;3.65;;;1.33;;
51913;SDS011;37940;53.002;6.930;2022-07-23T11:34:59;2.47;;;1.17;;
51913;SDS011;37940;53.002;6.930;2022-07-23T11:37:32;2.75;;;1.00;;
51913;SDS011;37940;53.002;6.930;2022-07-23T11:40:01;2.70;;;1.10;;
51913;SDS011;37940;53.002;6.930;2022-07-23T11:42:29;2.40;;;1.23;;
51913;SDS011;37940;53.002;6.930;2022-07-23T11:44:55;2.50;;;1.10;;
51913;SDS011;37940;53.002;6.930;2022-07-23T11:47:25;3.05;;;1.10;;
51913;SDS011;37940;53.002;6.930;2022-07-23T11:49:55;2.65;;;0.88;;
51913;SDS011;37940;53.002;6.930;2022-07-23T11:52:23;2.17;;;0.90;;
51913;SDS011;37940;53.002;6.930;2022-07-23T11:54:53;3.70;;;1.20;;
51913;SDS011;37940;53.002;6.930;2022-07-23T11:57:29;3.05;;;1.13;;
51913;SDS011;37940;53.002;6.930;2022-07-23T12:00:10;2.55;;;1.00;;
51913;SDS011;37940;53.002;6.930;2022-07-23T12:02:38;3.95;;;1.40;;
51913;SDS011;37940;53.002;6.930;2022-07-23T12:05:06;1.80;;;1.02;;
51913;SDS011;37940;53.002;6.930;2022-07-23T12:07:41;4.97;;;1.38;;
51913;SDS011;37940;53.002;6.930;2022-07-23T12:10:11;5.22;;;1.30;;
51913;SDS011;37940;53.002;6.930;2022-07-23T12:15:19;2.45;;;1.42;;
51913;SDS011;37940;53.002;6.930;2022-07-23T12:17:47;2.35;;;1.20;;
51913;SDS011;37940;53.002;6.930;2022-07-23T12:20:15;5.20;;;1.30;;
51913;SDS011;37940;53.002;6.930;2022-07-23T12:22:44;4.78;;;1.25;;
51913;SDS011;37940;53.002;6.930;2022-07-23T12:25:19;2.03;;;1.38;;
51913;SDS011;37940;53.002;6.930;2022-07-23T12:27:57;3.95;;;1.40;;
51913;SDS011;37940;53.002;6.930;2022-07-23T12:30:25;2.28;;;1.33;;
51913;SDS011;37940;53.002;6.930;2022-07-23T12:32:54;1.85;;;1.30;;
51913;SDS011;37940;53.002;6.930;2022-07-23T12:35:21;2.58;;;1.50;;
51913;SDS011;37940;53.002;6.930;2022-07-23T12:37:49;3.92;;;1.45;;
51913;SDS011;37940;53.002;6.930;2022-07-23T12:40:34;4.05;;;1.70;;
51913;SDS011;37940;53.002;6.930;2022-07-23T12:43:03;4.20;;;1.30;;
51913;SDS011;37940;53.002;6.930;2022-07-23T12:45:46;2.55;;;1.45;;
51913;SDS011;37940;53.002;6.930;2022-07-23T12:48:25;2.40;;;1.35;;
51913;SDS011;37940;53.002;6.930;2022-07-23T12:53:29;2.33;;;1.40;;
51913;SDS011;37940;53.002;6.930;2022-07-23T12:56:10;4.00;;;1.40;;
51913;SDS011;37940;53.002;6.930;2022-07-23T13:06:42;3.20;;;1.30;;
51913;SDS011;37940;53.002;6.930;2022-07-23T13:09:13;2.45;;;1.50;;
51913;SDS011;37940;53.002;6.930;2022-07-23T13:11:40;4.00;;;1.40;;
51913;SDS011;37940;53.002;6.930;2022-07-23T13:14:07;3.40;;;1.70;;
51913;SDS011;37940;53.002;6.930;2022-07-23T13:16:32;2.13;;;1.38;;
51913;SDS011;37940;53.002;6.930;2022-07-23T13:18:59;3.85;;;1.40;;
51913;SDS011;37940;53.002;6.930;2022-07-23T13:21:26;2.42;;;1.40;;
51913;SDS011;37940;53.002;6.930;2022-07-23T13:23:53;3.72;;;1.67;;
51913;SDS011;37940;53.002;6.930;2022-07-23T13:26:19;2.60;;;1.48;;
51913;SDS011;37940;53.002;6.930;2022-07-23T13:28:45;1.65;;;1.25;;
51913;SDS011;37940;53.002;6.930;2022-07-23T13:31:11;2.70;;;1.48;;
51913;SDS011;37940;53.002;6.930;2022-07-23T13:33:38;4.57;;;1.38;;
51913;SDS011;37940;53.002;6.930;2022-07-23T13:36:04;1.58;;;1.25;;
51913;SDS011;37940;53.002;6.930;2022-07-23T13:38:30;3.08;;;1.35;;
51913;SDS011;37940;53.002;6.930;2022-07-23T13:40:56;3.47;;;1.48;;
51913;SDS011;37940;53.002;6.930;2022-07-23T13:43:22;2.17;;;1.30;;
51913;SDS011;37940;53.002;6.930;2022-07-23T13:45:50;3.35;;;1.48;;
51913;SDS011;37940;53.002;6.930;2022-07-23T13:48:17;5.35;;;1.55;;
51913;SDS011;37940;53.002;6.930;2022-07-23T13:50:44;3.67;;;1.50;;
51913;SDS011;37940;53.002;6.930;2022-07-23T13:53:12;4.85;;;1.40;;
51913;SDS011;37940;53.002;6.930;2022-07-23T13:55:41;7.32;;;1.48;;
51913;SDS011;37940;53.002;6.930;2022-07-23T13:58:08;4.22;;;1.50;;
51913;SDS011;37940;53.002;6.930;2022-07-23T14:00:35;4.18;;;1.30;;
51913;SDS011;37940;53.002;6.930;2022-07-23T14:03:04;2.28;;;1.50;;
51913;SDS011;37940;53.002;6.930;2022-07-23T14:05:30;4.60;;;1.40;;
51913;SDS011;37940;53.002;6.930;2022-07-23T14:07:56;3.22;;;1.45;;
51913;SDS011;37940;53.002;6.930;2022-07-23T14:10:23;5.53;;;1.30;;
51913;SDS011;37940;53.002;6.930;2022-07-23T14:12:49;2.30;;;1.50;;
51913;SDS011;37940;53.002;6.930;2022-07-23T14:15:16;1.30;;;1.15;;
51913;SDS011;37940;53.002;6.930;2022-07-23T14:17:45;2.60;;;1.40;;
51913;SDS011;37940;53.002;6.930;2022-07-23T14:20:12;2.25;;;1.17;;
51913;SDS011;37940;53.002;6.930;2022-07-23T14:22:38;3.08;;;1.30;;
51913;SDS011;37940;53.002;6.930;2022-07-23T14:25:05;6.47;;;1.48;;
51913;SDS011;37940;53.002;6.930;2022-07-23T14:27:32;3.25;;;1.20;;
51913;SDS011;37940;53.002;6.930;2022-07-23T14:29:58;3.67;;;1.38;;
51913;SDS011;37940;53.002;6.930;2022-07-23T14:32:24;3.38;;;1.13;;
51913;SDS011;37940;53.002;6.930;2022-07-23T14:34:50;1.90;;;1.25;;
51913;SDS011;37940;53.002;6.930;2022-07-23T14:37:16;2.72;;;1.38;;
51913;SDS011;37940;53.002;6.930;2022-07-23T14:39:42;2.15;;;1.20;;
51913;SDS011;37940;53.002;6.930;2022-07-23T14:42:09;1.25;;;1.15;;
51913;SDS011;37940;53.002;6.930;2022-07-23T14:44:35;3.22;;;1.20;;
51913;SDS011;37940;53.002;6.930;2022-07-23T14:47:02;4.32;;;1.45;;
51913;SDS011;37940;53.002;6.930;2022-07-23T14:49:29;3.45;;;1.25;;
51913;SDS011;37940;53.002;6.930;2022-07-23T14:51:59;2.35;;;1.20;;
51913;SDS011;37940;53.002;6.930;2022-07-23T14:54:25;3.05;;;1.15;;
51913;SDS011;37940;53.002;6.930;2022-07-23T14:56:52;3.85;;;1.40;;
51913;SDS011;37940;53.002;6.930;2022-07-23T14:59:19;3.60;;;1.38;;
51913;SDS011;37940;53.002;6.930;2022-07-23T15:01:45;2.28;;;1.30;;
51913;SDS011;37940;53.002;6.930;2022-07-23T15:04:11;1.48;;;1.25;;
51913;SDS011;37940;53.002;6.930;2022-07-23T15:06:37;2.75;;;1.35;;
51913;SDS011;37940;53.002;6.930;2022-07-23T15:09:04;3.08;;;1.33;;
51913;SDS011;37940;53.002;6.930;2022-07-23T15:11:30;4.15;;;1.20;;
51913;SDS011;37940;53.002;6.930;2022-07-23T15:13:59;2.33;;;1.20;;
51913;SDS011;37940;53.002;6.930;2022-07-23T15:16:28;5.22;;;1.63;;
51913;SDS011;37940;53.002;6.930;2022-07-23T15:18:54;2.55;;;1.40;;
51913;SDS011;37940;53.002;6.930;2022-07-23T15:21:20;3.92;;;1.10;;
51913;SDS011;37940;53.002;6.930;2022-07-23T15:23:46;3.40;;;1.40;;
51913;SDS011;37940;53.002;6.930;2022-07-23T15:26:12;1.42;;;1.20;;
51913;SDS011;37940;53.002;6.930;2022-07-23T15:28:39;1.55;;;1.20;;
51913;SDS011;37940;53.002;6.930;2022-07-23T15:31:05;2.10;;;1.60;;
51913;SDS011;37940;53.002;6.930;2022-07-23T15:33:31;2.47;;;1.30;;
51913;SDS011;37940;53.002;6.930;2022-07-23T15:35:57;3.03;;;1.45;;
51913;SDS011;37940;53.002;6.930;2022-07-23T15:38:24;2.08;;;1.30;;
51913;SDS011;37940;53.002;6.930;2022-07-23T15:40:52;2.08;;;1.30;;
51913;SDS011;37940;53.002;6.930;2022-07-23T15:43:22;4.88;;;1.40;;